createdAt,value
2017-03-16T00:00:28.302Z,91.2
2017-03-16T00:01:30.168Z,91
2017-03-16T00:02:32.020Z,90.9
2017-03-16T00:03:34.151Z,90.9
2017-03-16T00:04:36.289Z,91.6
2017-03-16T00:05:38.413Z,92.1
2017-03-16T00:06:40.496Z,92.1
2017-03-16T00:07:42.986Z,91.6
2017-03-16T00:08:44.827Z,91.9
2017-03-16T00:09:46.906Z,92.6
2017-03-16T00:10:49.107Z,91.8
2017-03-16T00:11:51.521Z,91.8
2017-03-16T00:12:53.382Z,91.6
2017-03-16T00:13:55.230Z,91.6
2017-03-16T00:14:57.087Z,92
2017-03-16T00:15:58.961Z,92.7
2017-03-16T00:17:00.801Z,92.5
2017-03-16T00:18:02.652Z,92.3
2017-03-16T00:19:04.504Z,92.4
2017-03-16T00:20:06.695Z,92.8
2017-03-16T00:21:08.547Z,92.2
2017-03-16T00:22:10.397Z,92.7
2017-03-16T00:23:12.245Z,93.4
2017-03-16T00:24:14.108Z,93.2
2017-03-16T00:25:15.955Z,93
2017-03-16T00:26:18.311Z,93.2
2017-03-16T00:27:20.352Z,93
2017-03-16T00:28:22.484Z,93
2017-03-16T00:29:24.584Z,93.3
2017-03-16T00:30:26.688Z,93.6
2017-03-16T00:31:29.062Z,93.4
2017-03-16T00:32:31.390Z,93.8
2017-03-16T00:33:33.757Z,94
2017-03-16T00:34:35.851Z,93
2017-03-16T00:35:37.710Z,93.2
2017-03-16T00:36:39.825Z,93.7
2017-03-16T00:37:42.209Z,93.4
2017-03-16T00:38:44.048Z,93.4
2017-03-16T00:39:45.893Z,94.4
2017-03-16T00:40:47.749Z,93.9
2017-03-16T00:41:49.589Z,94
2017-03-16T00:42:51.446Z,94.3
2017-03-16T00:43:53.294Z,94
2017-03-16T00:44:55.136Z,93.9
2017-03-16T00:45:56.985Z,93.8
2017-03-16T00:46:58.836Z,93.6
2017-03-16T00:48:01.041Z,93.6
2017-03-16T00:49:02.878Z,93.8
2017-03-16T00:50:04.733Z,93.9
2017-03-16T00:51:06.780Z,94.2
2017-03-16T00:52:08.859Z,93.9
2017-03-16T00:53:10.991Z,93.6
2017-03-16T00:54:13.135Z,94.1
2017-03-16T00:55:14.973Z,94.2
2017-03-16T00:56:16.827Z,94
2017-03-16T00:57:18.671Z,93.5
2017-03-16T00:58:20.523Z,94.1
2017-03-16T00:59:22.372Z,93.8
2017-03-16T01:00:24.578Z,93.5
2017-03-16T01:01:26.433Z,94
2017-03-16T01:02:28.285Z,93.6
2017-03-16T01:03:30.665Z,93.9
2017-03-16T01:04:32.740Z,93.7
2017-03-16T01:05:34.878Z,93.9
2017-03-16T01:06:36.725Z,93.6
2017-03-16T01:07:38.577Z,94
2017-03-16T01:08:40.426Z,94.6
2017-03-16T01:09:42.604Z,94.1
2017-03-16T01:10:44.809Z,94
2017-03-16T01:11:46.661Z,94.2
2017-03-16T01:12:48.505Z,94.9
2017-03-16T01:13:50.372Z,95.1
2017-03-16T01:14:52.232Z,95.3
2017-03-16T01:15:54.077Z,95
2017-03-16T01:16:55.920Z,94.5
2017-03-16T01:17:57.774Z,95
2017-03-16T01:18:59.638Z,95.1
2017-03-16T01:20:01.486Z,95.1
2017-03-16T01:21:04.035Z,95.3
2017-03-16T01:22:06.021Z,95.2
2017-03-16T01:23:08.130Z,94.9
2017-03-16T01:24:10.266Z,95
2017-03-16T01:25:12.389Z,95
2017-03-16T01:26:14.252Z,94.8
2017-03-16T01:27:16.591Z,94.4
2017-03-16T01:28:18.605Z,95.3
2017-03-16T01:29:20.794Z,95.4
2017-03-16T01:30:22.631Z,95.1
2017-03-16T01:31:24.837Z,95
2017-03-16T01:32:26.683Z,95.2
2017-03-16T01:33:28.536Z,95.7
2017-03-16T01:34:30.378Z,95.4
2017-03-16T01:35:32.230Z,95.6
2017-03-16T01:36:34.089Z,95.7
2017-03-16T01:37:36.615Z,95.8
2017-03-16T01:38:38.456Z,95.3
2017-03-16T01:39:40.306Z,95.2
2017-03-16T01:40:42.489Z,95.4
2017-03-16T01:41:44.342Z,95.8
2017-03-16T01:42:46.190Z,95.9
2017-03-16T01:43:48.044Z,95.5
2017-03-16T01:44:50.226Z,95.8
2017-03-16T01:45:52.232Z,96.1
2017-03-16T01:46:54.344Z,96.3
2017-03-16T01:47:56.189Z,96.5
2017-03-16T01:48:58.312Z,96.4
2017-03-16T01:50:00.495Z,96
2017-03-16T01:51:02.340Z,97
2017-03-16T01:52:04.191Z,97.1
2017-03-16T01:53:06.041Z,97.1
2017-03-16T01:54:07.896Z,97.3
2017-03-16T01:55:09.750Z,96.7
2017-03-16T01:56:11.590Z,96.8
2017-03-16T01:57:13.457Z,96.5
2017-03-16T01:58:15.312Z,96.7
2017-03-16T01:59:17.501Z,97.3
2017-03-16T02:00:19.342Z,97.2
2017-03-16T02:01:21.196Z,96.8
2017-03-16T02:02:23.046Z,97
2017-03-16T02:03:24.893Z,97
2017-03-16T02:04:26.745Z,97.3
2017-03-16T02:05:28.583Z,97.5
2017-03-16T02:06:30.639Z,97.6
2017-03-16T02:07:32.767Z,97.4
2017-03-16T02:08:34.869Z,97.7
2017-03-16T02:09:36.978Z,97.5
2017-03-16T02:10:38.830Z,97.4
2017-03-16T02:11:40.698Z,97
2017-03-16T02:12:42.545Z,96.7
2017-03-16T02:13:44.382Z,97
2017-03-16T02:14:46.230Z,97.1
2017-03-16T02:15:48.078Z,97.1
2017-03-16T02:16:50.288Z,97.3
2017-03-16T02:17:52.135Z,96.8
2017-03-16T02:18:53.977Z,96.8
2017-03-16T02:19:55.841Z,96.9
2017-03-16T02:20:58.031Z,96.6
2017-03-16T02:21:59.887Z,96.5
2017-03-16T02:23:01.725Z,96.6
2017-03-16T02:24:03.913Z,96.6
2017-03-16T02:25:05.757Z,96.3
2017-03-16T02:26:07.600Z,96
2017-03-16T02:27:09.447Z,95.8
2017-03-16T02:28:11.285Z,95.8
2017-03-16T02:29:13.129Z,95.9
2017-03-16T02:30:14.988Z,95.7
2017-03-16T02:31:16.832Z,95.6
2017-03-16T02:32:18.681Z,95.6
2017-03-16T02:33:20.516Z,95.7
2017-03-16T02:34:22.374Z,95.8
2017-03-16T02:35:24.221Z,95.7
2017-03-16T02:36:26.076Z,95.8
2017-03-16T02:37:27.916Z,95.7
2017-03-16T02:38:30.442Z,95.8
2017-03-16T02:39:32.295Z,96
2017-03-16T02:40:34.148Z,95.9
2017-03-16T02:41:35.983Z,95.5
2017-03-16T02:42:38.170Z,96
2017-03-16T02:43:40.024Z,95.6
2017-03-16T02:44:41.872Z,95.5
2017-03-16T02:45:43.716Z,95.6
2017-03-16T02:46:45.564Z,95.8
2017-03-16T02:47:47.403Z,95.8
2017-03-16T02:48:49.594Z,95.9
2017-03-16T02:49:51.447Z,95.6
2017-03-16T02:50:53.302Z,95.6
2017-03-16T02:51:55.144Z,95.5
2017-03-16T02:52:57.016Z,95.6
2017-03-16T02:53:59.212Z,95.8
2017-03-16T02:55:01.415Z,95.6
2017-03-16T02:56:03.255Z,95.5
2017-03-16T02:57:05.109Z,95.9
2017-03-16T02:58:06.954Z,95.8
2017-03-16T02:59:08.801Z,95.9
2017-03-16T03:00:10.643Z,95.8
2017-03-16T03:01:12.501Z,95.6
2017-03-16T03:02:14.342Z,95.8
2017-03-16T03:03:16.537Z,95.8
2017-03-16T03:04:18.716Z,95.8
2017-03-16T03:05:20.566Z,95.6
2017-03-16T03:06:22.416Z,95.8
2017-03-16T03:07:24.268Z,95.8
2017-03-16T03:08:26.121Z,95.6
2017-03-16T03:09:27.974Z,95.9
2017-03-16T03:10:29.820Z,95.6
2017-03-16T03:11:31.667Z,95.4
2017-03-16T03:12:33.514Z,95.4
2017-03-16T03:13:35.363Z,95.8
2017-03-16T03:14:37.209Z,96
2017-03-16T03:15:39.054Z,95.8
2017-03-16T03:16:40.893Z,95.9
2017-03-16T03:17:42.743Z,95.3
2017-03-16T03:18:44.596Z,95.7
2017-03-16T03:19:46.435Z,95.8
2017-03-16T03:20:48.278Z,95.8
2017-03-16T03:21:50.117Z,95.9
2017-03-16T03:22:51.972Z,96
2017-03-16T03:23:53.810Z,95.8
2017-03-16T03:24:55.654Z,95.6
2017-03-16T03:25:58.187Z,95.4
2017-03-16T03:27:00.034Z,95.6
2017-03-16T03:28:01.874Z,95.6
2017-03-16T03:29:03.712Z,95.5
2017-03-16T03:30:05.572Z,95.4
2017-03-16T03:31:07.424Z,95.6
2017-03-16T03:32:09.264Z,95.6
2017-03-16T03:33:11.109Z,95.7
2017-03-16T03:34:13.285Z,95.6
2017-03-16T03:35:15.135Z,95.6
2017-03-16T03:36:16.997Z,95.6
2017-03-16T03:37:18.846Z,95.4
2017-03-16T03:38:20.688Z,95.5
2017-03-16T03:39:22.538Z,95.7
2017-03-16T03:40:24.391Z,95.5
2017-03-16T03:41:26.238Z,95.6
2017-03-16T03:42:28.070Z,95.6
2017-03-16T03:43:29.917Z,95.8
2017-03-16T03:44:31.760Z,95.9
2017-03-16T03:45:33.608Z,95.8
2017-03-16T03:46:35.444Z,95.8
2017-03-16T03:47:37.289Z,95.8
2017-03-16T03:48:39.132Z,96
2017-03-16T03:49:40.983Z,95.8
2017-03-16T03:50:42.814Z,95.9
2017-03-16T03:51:44.655Z,95.9
2017-03-16T03:52:46.496Z,95.7
2017-03-16T03:53:48.345Z,96.1
2017-03-16T03:54:50.184Z,96.3
2017-03-16T03:55:52.025Z,96.5
2017-03-16T03:56:54.208Z,96.3
2017-03-16T03:57:56.050Z,96.2
2017-03-16T03:58:57.902Z,96.2
2017-03-16T03:59:59.741Z,96.1
2017-03-16T04:01:01.586Z,96
2017-03-16T04:02:03.431Z,95.9
2017-03-16T04:03:05.605Z,95.9
2017-03-16T04:04:07.460Z,95.9
2017-03-16T04:05:09.300Z,95.9
2017-03-16T04:06:11.146Z,96
2017-03-16T04:07:13.280Z,95.9
2017-03-16T04:08:15.136Z,95.9
2017-03-16T04:09:16.984Z,95.9
2017-03-16T04:10:18.833Z,96
2017-03-16T04:11:20.680Z,96
2017-03-16T04:12:22.528Z,96
2017-03-16T04:13:24.370Z,96.1
2017-03-16T04:14:26.211Z,95.9
2017-03-16T04:15:28.048Z,95.9
2017-03-16T04:16:29.894Z,96.1
2017-03-16T04:17:31.748Z,96
2017-03-16T04:18:33.597Z,96.1
2017-03-16T04:19:35.435Z,96.1
2017-03-16T04:20:37.285Z,96
2017-03-16T04:21:39.462Z,96
2017-03-16T04:22:41.305Z,96.1
2017-03-16T04:23:43.156Z,96.1
2017-03-16T04:24:45.002Z,96.1
2017-03-16T04:25:46.881Z,95.9
2017-03-16T04:26:48.731Z,95.9
2017-03-16T04:27:50.581Z,96.3
2017-03-16T04:28:52.758Z,96.1
2017-03-16T04:29:54.605Z,96.3
2017-03-16T04:30:56.454Z,96.2
2017-03-16T04:31:58.290Z,96
2017-03-16T04:33:00.492Z,95.9
2017-03-16T04:34:02.673Z,96
2017-03-16T04:35:04.521Z,96.1
2017-03-16T04:36:06.366Z,95.9
2017-03-16T04:37:08.211Z,95.8
2017-03-16T04:38:10.049Z,95.8
2017-03-16T04:39:11.886Z,95.6
2017-03-16T04:40:14.084Z,95.7
2017-03-16T04:41:15.927Z,95.8
2017-03-16T04:42:17.774Z,95.8
2017-03-16T04:43:19.620Z,95.6
2017-03-16T04:44:21.471Z,95.5
2017-03-16T04:45:23.317Z,95.3
2017-03-16T04:46:25.160Z,95.2
2017-03-16T04:47:27.015Z,95.3
2017-03-16T04:48:28.851Z,95.2
2017-03-16T04:49:30.698Z,95.1
2017-03-16T04:50:32.539Z,94.9
2017-03-16T04:51:34.386Z,94.8
2017-03-16T04:52:36.224Z,94.9
2017-03-16T04:53:38.068Z,95
2017-03-16T04:54:39.914Z,94.9
2017-03-16T04:55:41.760Z,94.7
2017-03-16T04:56:43.601Z,94.8
2017-03-16T04:57:45.804Z,94.7
2017-03-16T04:58:47.645Z,94.7
2017-03-16T04:59:49.493Z,94.8
2017-03-16T05:00:51.333Z,94.7
2017-03-16T05:01:53.169Z,94.5
2017-03-16T05:02:55.015Z,94.6
2017-03-16T05:03:56.861Z,94.7
2017-03-16T05:04:59.046Z,94.6
2017-03-16T05:06:00.888Z,94.7
2017-03-16T05:07:02.744Z,94.4
2017-03-16T05:08:04.590Z,94.5
2017-03-16T05:09:07.129Z,94.7
2017-03-16T05:10:09.314Z,94.5
2017-03-16T05:11:11.166Z,94.5
2017-03-16T05:12:13.017Z,94.5
2017-03-16T05:13:14.868Z,94.4
2017-03-16T05:14:17.061Z,94.4
2017-03-16T05:15:18.906Z,94.5
2017-03-16T05:16:20.753Z,94.6
2017-03-16T05:17:22.605Z,94.5
2017-03-16T05:18:24.790Z,94.5
2017-03-16T05:19:26.646Z,94.4
2017-03-16T05:20:28.499Z,94.6
2017-03-16T05:21:30.354Z,94.5
2017-03-16T05:22:32.551Z,94.6
2017-03-16T05:23:34.398Z,94.4
2017-03-16T05:24:36.249Z,94.2
2017-03-16T05:25:38.094Z,94.4
2017-03-16T05:26:39.942Z,94.6
2017-03-16T05:27:41.797Z,94.7
2017-03-16T05:28:44.321Z,94.5
2017-03-16T05:29:46.504Z,94.5
2017-03-16T05:30:48.349Z,94.5
2017-03-16T05:31:50.534Z,94.4
2017-03-16T05:32:52.390Z,94.2
2017-03-16T05:33:54.234Z,94.2
2017-03-16T05:34:56.416Z,94.2
2017-03-16T05:35:58.262Z,94.2
2017-03-16T05:37:00.450Z,94.1
2017-03-16T05:38:02.290Z,94.2
2017-03-16T05:39:04.136Z,94.1
2017-03-16T05:40:05.981Z,94.1
2017-03-16T05:41:07.825Z,94.1
2017-03-16T05:42:09.677Z,94.2
2017-03-16T05:43:11.524Z,94.2
2017-03-16T05:44:13.374Z,94.4
2017-03-16T05:45:15.217Z,94.4
2017-03-16T05:46:17.070Z,94.2
2017-03-16T05:47:18.907Z,94.3
2017-03-16T05:51:44.448Z,94.4
2017-03-16T05:52:46.626Z,94.5
2017-03-16T05:53:49.164Z,94
2017-03-16T05:54:51.011Z,93.9
2017-03-16T05:55:53.562Z,93.9
2017-03-16T05:56:55.403Z,93.7
2017-03-16T05:57:57.231Z,93.5
2017-03-16T05:58:59.257Z,93.7
2017-03-16T06:00:01.092Z,93.8
2017-03-16T06:01:03.640Z,93.5
2017-03-16T06:02:05.667Z,93.5
2017-03-16T06:03:07.858Z,93.4
2017-03-16T06:04:09.717Z,93.5
2017-03-16T06:05:11.563Z,93.2
2017-03-16T06:06:13.398Z,93.5
2017-03-16T06:07:15.240Z,93.4
2017-03-16T06:08:17.429Z,93.4
2017-03-16T06:09:19.681Z,93.6
2017-03-16T06:10:21.518Z,93.2
2017-03-16T06:11:23.828Z,93.4
2017-03-16T06:12:25.671Z,93.4
2017-03-16T06:13:27.511Z,93.5
2017-03-16T06:14:30.108Z,93.4
2017-03-16T06:15:32.408Z,93.6
2017-03-16T06:16:34.342Z,93.5
2017-03-16T06:17:36.521Z,93.1
2017-03-16T06:18:38.951Z,93.7
2017-03-16T06:19:40.802Z,93.5
2017-03-16T06:20:42.647Z,93.5
2017-03-16T06:21:44.519Z,93.4
2017-03-16T06:22:46.365Z,93.1
2017-03-16T06:23:48.226Z,93.2
2017-03-16T06:24:50.737Z,93
2017-03-16T06:25:52.578Z,93
2017-03-16T06:26:54.741Z,92.9
2017-03-16T06:27:56.933Z,92.8
2017-03-16T06:28:58.797Z,92.7
2017-03-16T06:30:01.586Z,92.6
2017-03-16T06:31:03.427Z,92.6
2017-03-16T06:32:05.271Z,92.7
2017-03-16T06:33:07.115Z,92.4
2017-03-16T06:34:09.071Z,92.5
2017-03-16T06:35:11.252Z,92.2
2017-03-16T06:36:13.165Z,92.2
2017-03-16T06:37:15.043Z,92.3
2017-03-16T06:38:17.241Z,92.2
2017-03-16T06:39:20.079Z,92.2
2017-03-16T06:40:22.330Z,92.2
2017-03-16T06:41:24.611Z,92
2017-03-16T06:42:26.460Z,92.1
2017-03-16T06:43:28.467Z,92.4
2017-03-16T06:44:30.542Z,91.9
2017-03-16T06:45:32.386Z,91.8
2017-03-16T06:46:34.240Z,91.9
2017-03-16T06:47:36.196Z,91.6
2017-03-16T06:48:38.053Z,91.7
2017-03-16T06:49:39.899Z,91.8
2017-03-16T06:50:41.753Z,91.9
2017-03-16T06:51:44.333Z,92
2017-03-16T06:52:46.189Z,92.1
2017-03-16T06:53:48.582Z,92.1
2017-03-16T06:54:50.763Z,91.7
2017-03-16T06:55:52.794Z,91.7
2017-03-16T06:56:54.637Z,91.4
2017-03-16T06:57:57.172Z,91.7
2017-03-16T06:59:00.354Z,91.6
2017-03-16T07:00:02.194Z,91.4
2017-03-16T07:01:04.118Z,91.4
2017-03-16T07:02:05.954Z,91.1
2017-03-16T07:03:07.808Z,91.6
2017-03-16T07:04:10.439Z,91.3
2017-03-16T07:05:12.309Z,90.7
2017-03-16T07:06:14.929Z,90.8
2017-03-16T07:07:16.860Z,91.1
2017-03-16T07:08:18.698Z,91.1
2017-03-16T07:09:20.562Z,91.1
2017-03-16T07:10:22.721Z,91.3
2017-03-16T07:11:24.557Z,91.4
2017-03-16T07:12:26.393Z,91.4
2017-03-16T07:13:28.662Z,90.8
2017-03-16T07:14:31.223Z,90.8
2017-03-16T07:15:33.059Z,90.8
2017-03-16T07:16:34.953Z,91.1
2017-03-16T07:17:36.803Z,91.1
2017-03-16T07:18:38.993Z,91.2
2017-03-16T07:19:40.969Z,91.3
2017-03-16T07:20:42.793Z,91.1
2017-03-16T07:21:44.643Z,90.9
2017-03-16T07:22:46.482Z,90.8
2017-03-16T07:23:48.819Z,91.1
2017-03-16T07:24:51.008Z,90.7
2017-03-16T07:25:53.367Z,90.7
2017-03-16T07:26:55.206Z,90.9
2017-03-16T07:27:57.052Z,91.2
2017-03-16T07:28:59.052Z,91.1
2017-03-16T07:30:01.242Z,90.6
2017-03-16T07:31:03.423Z,90.6
2017-03-16T07:32:05.435Z,90.7
2017-03-16T07:33:07.288Z,90.5
2017-03-16T07:34:09.131Z,90.9
2017-03-16T07:35:11.093Z,90.3
2017-03-16T07:36:12.927Z,90.4
2017-03-16T07:37:14.768Z,90
2017-03-16T07:38:17.102Z,90.1
2017-03-16T07:39:18.944Z,90.1
2017-03-16T07:40:20.783Z,90.3
2017-03-16T07:41:22.626Z,90
2017-03-16T07:42:24.608Z,89.8
2017-03-16T07:43:26.452Z,90
2017-03-16T07:44:28.288Z,89.8
2017-03-16T07:45:30.129Z,89.5
2017-03-16T07:46:31.972Z,89.6
2017-03-16T07:47:33.804Z,89.4
2017-03-16T07:48:35.694Z,89.5
2017-03-16T07:49:37.530Z,89.4
2017-03-16T07:50:39.379Z,89.4
2017-03-16T07:51:41.264Z,89.2
2017-03-16T07:52:43.440Z,89.2
2017-03-16T07:53:45.630Z,89.4
2017-03-16T07:54:47.489Z,89.4
2017-03-16T07:55:49.326Z,89.3
2017-03-16T07:56:51.169Z,88.9
2017-03-16T07:57:53.006Z,88.7
2017-03-16T07:58:54.992Z,88.7
2017-03-16T07:59:57.169Z,88.4
2017-03-16T08:00:59.687Z,88.3
2017-03-16T08:02:01.527Z,88.3
2017-03-16T08:03:03.372Z,88.4
2017-03-16T08:04:05.221Z,88.3
2017-03-16T08:05:07.058Z,88.3
2017-03-16T08:06:09.101Z,87.6
2017-03-16T08:07:10.942Z,87.6
2017-03-16T08:08:12.786Z,87.8
2017-03-16T08:09:15.308Z,87.7
2017-03-16T08:10:17.139Z,87.6
2017-03-16T08:11:18.978Z,87.4
2017-03-16T08:12:20.819Z,87.5
2017-03-16T08:13:22.856Z,87.4
2017-03-16T08:14:24.690Z,87.3
2017-03-16T08:15:26.524Z,87.3
2017-03-16T08:16:28.365Z,87.4
2017-03-16T08:17:30.209Z,87.3
2017-03-16T08:18:32.045Z,87.2
2017-03-16T08:19:34.223Z,87.1
2017-03-16T08:20:36.063Z,87.1
2017-03-16T08:21:37.908Z,87.5
2017-03-16T08:22:40.086Z,87.3
2017-03-16T08:23:41.924Z,87.2
2017-03-16T08:24:43.759Z,87.2
2017-03-16T08:25:45.674Z,87.4
2017-03-16T08:26:47.537Z,87.3
2017-03-16T08:27:49.378Z,87.5
2017-03-16T08:28:51.227Z,87
2017-03-16T08:29:53.066Z,87.3
2017-03-16T08:30:54.898Z,87.2
2017-03-16T08:31:56.927Z,87.5
2017-03-16T08:32:58.760Z,87.2
2017-03-16T08:34:00.791Z,86.7
2017-03-16T08:35:02.625Z,86.9
2017-03-16T08:36:04.470Z,86.7
2017-03-16T08:37:06.311Z,86.7
2017-03-16T08:38:08.172Z,86.7
2017-03-16T08:39:10.005Z,86.7
2017-03-16T08:40:12.337Z,86.5
2017-03-16T08:41:14.510Z,86.1
2017-03-16T08:42:16.349Z,85.9
2017-03-16T08:43:18.460Z,85.7
2017-03-16T08:44:20.299Z,85.8
2017-03-16T08:45:22.144Z,85.9
2017-03-16T08:46:23.990Z,85.4
2017-03-16T08:47:25.830Z,85.3
2017-03-16T08:48:27.671Z,85.7
2017-03-16T08:49:29.507Z,85.2
2017-03-16T08:50:31.345Z,85.2
2017-03-16T08:51:33.173Z,84.8
2017-03-16T08:52:35.017Z,85
2017-03-16T08:53:36.860Z,85.3
2017-03-16T08:54:39.041Z,84.7
2017-03-16T08:55:40.878Z,84.7
2017-03-16T08:56:42.711Z,84.2
2017-03-16T08:57:44.553Z,83.8
2017-03-16T08:58:46.391Z,83.5
2017-03-16T08:59:48.227Z,83.5
2017-03-16T09:00:50.066Z,83.1
2017-03-16T09:01:52.264Z,82.8
2017-03-16T09:02:54.115Z,82.7
2017-03-16T09:03:55.959Z,82.6
2017-03-16T09:04:57.796Z,82.3
2017-03-16T09:05:59.636Z,82
2017-03-16T09:07:01.480Z,82
2017-03-16T09:08:03.673Z,81.7
2017-03-16T09:09:05.510Z,81.3
2017-03-16T09:10:07.343Z,81.1
2017-03-16T09:11:09.181Z,81
2017-03-16T09:12:11.017Z,80.9
2017-03-16T09:13:12.863Z,80.9
2017-03-16T09:14:14.697Z,81.2
2017-03-16T09:15:16.541Z,80.7
2017-03-16T09:16:18.377Z,80.5
2017-03-16T09:17:20.231Z,80.6
2017-03-16T09:18:22.076Z,79.8
2017-03-16T09:19:23.921Z,79.9
2017-03-16T09:20:25.757Z,79.8
2017-03-16T09:21:27.605Z,79.2
2017-03-16T09:22:29.442Z,79.2
2017-03-16T09:23:31.309Z,79.3
2017-03-16T09:24:33.165Z,79.2
2017-03-16T09:25:35.338Z,79
2017-03-16T09:26:37.184Z,78.3
2017-03-16T09:27:39.019Z,78.3
2017-03-16T09:28:40.856Z,78.3
2017-03-16T09:29:43.035Z,78.4
2017-03-16T09:30:44.880Z,78.3
2017-03-16T09:31:46.726Z,78.3
2017-03-16T09:32:48.557Z,78.3
2017-03-16T09:33:50.404Z,78.2
2017-03-16T09:34:52.247Z,78.2
2017-03-16T09:35:54.092Z,78.6
2017-03-16T09:36:55.935Z,78.2
2017-03-16T09:37:58.105Z,78.3
2017-03-16T09:38:59.947Z,77.4
2017-03-16T09:40:01.786Z,77.2
2017-03-16T09:41:03.963Z,77.9
2017-03-16T09:42:05.805Z,77.2
2017-03-16T09:43:07.640Z,76.7
2017-03-16T09:44:09.487Z,76.8
2017-03-16T09:45:11.355Z,76.3
2017-03-16T09:46:13.195Z,76.4
2017-03-16T09:47:15.030Z,75.9
2017-03-16T09:48:16.869Z,75.9
2017-03-16T09:49:18.713Z,76
2017-03-16T09:50:20.549Z,75.8
2017-03-16T09:51:22.387Z,75.2
2017-03-16T09:52:24.232Z,75
2017-03-16T09:53:26.068Z,74.9
2017-03-16T09:54:27.920Z,75.2
2017-03-16T09:55:29.759Z,74.3
2017-03-16T09:56:31.605Z,74.1
2017-03-16T09:57:33.441Z,73.6
2017-03-16T09:58:35.291Z,73.3
2017-03-16T09:59:37.132Z,73.1
2017-03-16T10:00:39.326Z,73.8
2017-03-16T10:01:41.171Z,73.1
2017-03-16T10:02:43.003Z,72.7
2017-03-16T10:03:44.847Z,72.5
2017-03-16T10:04:46.693Z,72.6
2017-03-16T10:05:48.529Z,72.6
2017-03-16T10:06:50.377Z,72.5
2017-03-16T10:07:52.223Z,72.6
2017-03-16T10:08:54.062Z,72.6
2017-03-16T10:09:55.898Z,72.3
2017-03-16T10:10:57.742Z,72.1
2017-03-16T10:11:59.938Z,72.3
2017-03-16T10:13:01.789Z,72.1
2017-03-16T10:14:03.632Z,71.6
2017-03-16T10:15:05.477Z,72.1
2017-03-16T10:16:07.316Z,71.9
2017-03-16T10:17:09.165Z,71.6
2017-03-16T10:18:11.002Z,71.4
2017-03-16T10:19:12.835Z,71.3
2017-03-16T10:20:15.013Z,71.1
2017-03-16T10:21:16.858Z,71.3
2017-03-16T10:22:18.697Z,71.1
2017-03-16T10:23:20.535Z,71.3
2017-03-16T10:24:22.378Z,70.3
2017-03-16T10:25:24.550Z,70.6
2017-03-16T10:26:26.397Z,69.8
2017-03-16T10:27:28.237Z,69.9
2017-03-16T10:28:30.456Z,69.5
2017-03-16T10:29:32.296Z,69.4
2017-03-16T10:30:34.486Z,69.2
2017-03-16T10:31:36.323Z,68.8
2017-03-16T10:32:38.168Z,68.8
2017-03-16T10:33:40.014Z,69.1
2017-03-16T10:34:41.857Z,69.2
2017-03-16T10:35:43.740Z,68.2
2017-03-16T10:36:45.587Z,67.4
2017-03-16T10:37:47.433Z,67.6
2017-03-16T10:38:49.282Z,67.2
2017-03-16T10:39:51.128Z,67
2017-03-16T10:40:53.305Z,66.8
2017-03-16T10:41:55.143Z,66.7
2017-03-16T10:42:56.987Z,66.8
2017-03-16T10:43:58.839Z,65.9
2017-03-16T10:45:00.675Z,65.5
2017-03-16T10:46:02.519Z,65.7
2017-03-16T10:47:04.367Z,65.8
2017-03-16T10:48:06.212Z,65.3
2017-03-16T10:49:08.062Z,64.5
2017-03-16T10:50:09.900Z,64.3
2017-03-16T10:51:11.744Z,63.5
2017-03-16T10:52:13.588Z,63.6
2017-03-16T10:53:15.432Z,63.8
2017-03-16T10:54:17.280Z,62.8
2017-03-16T10:55:19.119Z,62.6
2017-03-16T10:56:20.966Z,62
2017-03-16T10:57:22.813Z,62.4
2017-03-16T10:58:24.687Z,61.8
2017-03-16T10:59:26.524Z,61.7
2017-03-16T11:00:28.380Z,62
2017-03-16T11:01:30.658Z,62
2017-03-16T11:02:32.504Z,61.7
2017-03-16T11:03:34.678Z,61.2
2017-03-16T11:04:36.526Z,60.8
2017-03-16T11:05:38.377Z,61
2017-03-16T11:06:40.218Z,60.5
2017-03-16T11:07:42.058Z,60.3
2017-03-16T11:08:43.909Z,60.1
2017-03-16T11:09:45.756Z,59.9
2017-03-16T11:10:47.612Z,60.2
2017-03-16T11:11:49.455Z,60.3
2017-03-16T11:12:51.298Z,60.3
2017-03-16T11:13:53.149Z,60
2017-03-16T11:14:54.999Z,59.1
2017-03-16T11:15:56.861Z,58.7
2017-03-16T11:16:58.702Z,58.8
2017-03-16T11:18:00.548Z,58.2
2017-03-16T11:19:02.391Z,58
2017-03-16T11:20:04.236Z,58
2017-03-16T11:21:06.082Z,57.9
2017-03-16T11:22:07.929Z,58.4
2017-03-16T11:23:09.769Z,57.9
2017-03-16T11:24:11.611Z,57.2
2017-03-16T11:25:13.461Z,57.3
2017-03-16T11:26:15.310Z,57.7
2017-03-16T11:27:17.153Z,57.5
2017-03-16T11:28:19.002Z,55.8
2017-03-16T11:29:20.850Z,57.2
2017-03-16T11:30:22.696Z,56.1
2017-03-16T11:31:24.548Z,56.6
2017-03-16T11:32:27.048Z,56.2
2017-03-16T11:33:28.893Z,56.1
2017-03-16T11:34:30.738Z,56.1
2017-03-16T11:35:32.590Z,55.8
2017-03-16T11:36:34.429Z,55.8
2017-03-16T11:37:36.277Z,55.6
2017-03-16T11:38:38.127Z,55
2017-03-16T11:39:39.977Z,55.8
2017-03-16T11:40:42.186Z,55.7
2017-03-16T11:41:44.034Z,55.9
2017-03-16T11:42:45.878Z,55.7
2017-03-16T11:43:47.729Z,54
2017-03-16T11:44:49.572Z,54.6
2017-03-16T11:45:51.776Z,54.3
2017-03-16T11:46:53.629Z,53.6
2017-03-16T11:47:55.814Z,54.1
2017-03-16T11:48:57.661Z,53.7
2017-03-16T11:49:59.509Z,53.7
2017-03-16T11:51:01.363Z,53.4
2017-03-16T11:52:03.210Z,53.4
2017-03-16T11:53:05.069Z,52.5
2017-03-16T11:54:06.917Z,52.8
2017-03-16T11:55:08.789Z,53.6
2017-03-16T11:56:10.643Z,53.3
2017-03-16T11:57:12.849Z,54.6
2017-03-16T11:58:14.702Z,53.6
2017-03-16T11:59:16.555Z,54.5
2017-03-16T12:00:18.407Z,54
2017-03-16T12:01:20.261Z,53.9
2017-03-16T12:02:22.118Z,53.9
2017-03-16T12:03:24.263Z,54.2
2017-03-16T12:04:26.107Z,54
2017-03-16T12:05:27.954Z,54.4
2017-03-16T12:06:29.804Z,53.4
2017-03-16T12:07:32.009Z,53.6
2017-03-16T12:08:33.857Z,54.1
2017-03-16T12:09:35.708Z,54.2
2017-03-16T12:10:37.559Z,54.6
2017-03-16T12:11:39.414Z,54.8
2017-03-16T12:12:41.281Z,54.8
2017-03-16T12:13:43.468Z,54.9
2017-03-16T12:14:45.315Z,54.5
2017-03-16T12:15:47.163Z,55.3
2017-03-16T12:16:49.019Z,55.4
2017-03-16T12:17:50.859Z,55.6
2017-03-16T12:18:53.060Z,55.8
2017-03-16T12:19:54.908Z,55.2
2017-03-16T12:20:56.757Z,55.1
2017-03-16T12:21:58.609Z,54.6
2017-03-16T12:23:00.459Z,54.1
2017-03-16T12:24:02.306Z,54.2
2017-03-16T12:25:04.149Z,54.3
2017-03-16T12:26:06.009Z,54.5
2017-03-16T12:27:07.851Z,54.8
2017-03-16T12:28:09.727Z,54.8
2017-03-16T12:29:11.581Z,54.9
2017-03-16T12:30:13.429Z,54.6
2017-03-16T12:31:15.282Z,54
2017-03-16T12:32:17.132Z,54.3
2017-03-16T12:33:18.978Z,54.2
2017-03-16T12:34:20.830Z,53.4
2017-03-16T12:35:22.676Z,53.6
2017-03-16T12:36:24.524Z,54.3
2017-03-16T12:37:26.375Z,54.1
2017-03-16T12:38:28.566Z,53.7
2017-03-16T12:39:30.417Z,54.6
2017-03-16T12:40:32.272Z,53.1
2017-03-16T12:41:34.122Z,53.1
2017-03-16T12:42:36.319Z,52.6
2017-03-16T12:43:38.167Z,52.8
2017-03-16T12:44:40.018Z,52.8
2017-03-16T12:45:41.865Z,52.8
2017-03-16T12:46:43.710Z,53.1
2017-03-16T12:47:45.904Z,53.7
2017-03-16T12:48:47.751Z,52.6
2017-03-16T12:49:49.958Z,51.8
2017-03-16T12:50:51.821Z,51.9
2017-03-16T12:51:53.697Z,51.3
2017-03-16T12:52:55.554Z,51.6
2017-03-16T12:53:57.414Z,51.2
2017-03-16T12:54:59.262Z,50.5
2017-03-16T12:56:01.109Z,50.7
2017-03-16T12:57:02.959Z,50.9
2017-03-16T12:58:04.802Z,51.2
2017-03-16T12:59:06.664Z,50.9
2017-03-16T13:00:08.516Z,50.7
2017-03-16T13:01:10.380Z,51
2017-03-16T13:02:12.232Z,49.6
2017-03-16T13:03:14.080Z,49.6
2017-03-16T13:04:15.929Z,49.7
2017-03-16T13:05:17.779Z,49.9
2017-03-16T13:06:19.627Z,50.3
2017-03-16T13:07:21.494Z,50.5
2017-03-16T13:08:23.683Z,49.7
2017-03-16T13:09:25.537Z,49.6
2017-03-16T13:10:27.386Z,50.2
2017-03-16T13:11:29.246Z,50
2017-03-16T13:12:31.095Z,50
2017-03-16T13:13:32.945Z,50.3
2017-03-16T13:14:34.799Z,49.6
2017-03-16T13:15:36.997Z,50.1
2017-03-16T13:16:38.852Z,49.6
2017-03-16T13:17:40.704Z,50.1
2017-03-16T13:18:42.554Z,48.6
2017-03-16T13:19:44.405Z,48.9
2017-03-16T13:20:46.273Z,49.1
2017-03-16T13:21:48.127Z,49.1
2017-03-16T13:22:49.981Z,49.5
2017-03-16T13:23:52.173Z,49.1
2017-03-16T13:24:54.026Z,50
2017-03-16T13:25:55.871Z,49.7
2017-03-16T13:26:57.723Z,49.7
2017-03-16T13:27:59.571Z,49.5
2017-03-16T13:29:01.430Z,49.2
2017-03-16T13:30:03.285Z,49.3
2017-03-16T13:31:05.141Z,49.9
2017-03-16T13:32:07.333Z,49.9
2017-03-16T13:33:09.193Z,49.8
2017-03-16T13:34:11.053Z,49.4
2017-03-16T13:35:12.940Z,49.7
2017-03-16T13:36:14.793Z,49.9
2017-03-16T13:37:16.650Z,50
2017-03-16T13:38:18.509Z,49.4
2017-03-16T13:39:20.357Z,49
2017-03-16T13:40:22.214Z,48.3
2017-03-16T13:41:24.067Z,48.1
2017-03-16T13:42:25.912Z,48.7
2017-03-16T13:43:27.758Z,47.9
2017-03-16T13:44:29.669Z,48.2
2017-03-16T13:45:31.525Z,49.1
2017-03-16T13:46:33.384Z,49.2
2017-03-16T13:47:35.238Z,48.8
2017-03-16T13:48:37.181Z,49.4
2017-03-16T13:49:39.042Z,49.2
2017-03-16T13:50:41.286Z,49
2017-03-16T13:51:43.157Z,48.3
2017-03-16T13:52:45.047Z,48.9